sensor_id;sensor_type;location;lat;lon;timestamp;pressure;altitude;pressure_sealevel;temperature;humidity
23118;BME280;11728;50.624;6.014;2023-06-22T00:02:46;98534.03;;;23.47;59.20
23118;BME280;11728;50.624;6.014;2023-06-22T00:08:07;98535.22;;;23.43;59.43
23118;BME280;11728;50.624;6.014;2023-06-22T00:13:28;98528.31;;;23.39;59.37
23118;BME280;11728;50.624;6.014;2023-06-22T00:18:48;98525.06;;;23.34;59.46
23118;BME280;11728;50.624;6.014;2023-06-22T00:24:09;98527.22;;;23.29;59.41
23118;BME280;11728;50.624;6.014;2023-06-22T00:29:30;98519.56;;;23.24;59.73
23118;BME280;11728;50.624;6.014;2023-06-22T00:34:50;98508.16;;;23.20;59.64
23118;BME280;11728;50.624;6.014;2023-06-22T00:40:11;98506.72;;;23.15;59.65
23118;BME280;11728;50.624;6.014;2023-06-22T00:45:32;98496.69;;;23.04;60.42
23118;BME280;11728;50.624;6.014;2023-06-22T00:50:53;98493.50;;;22.98;60.45
23118;BME280;11728;50.624;6.014;2023-06-22T00:56:16;98496.63;;;22.92;60.35
23118;BME280;11728;50.624;6.014;2023-06-22T01:01:39;98488.78;;;22.89;60.56
23118;BME280;11728;50.624;6.014;2023-06-22T01:12:30;98482.09;;;22.82;61.12
23118;BME280;11728;50.624;6.014;2023-06-22T01:17:53;98473.44;;;22.77;61.64
23118;BME280;11728;50.624;6.014;2023-06-22T01:29:00;98469.31;;;22.71;61.47
23118;BME280;11728;50.624;6.014;2023-06-22T01:34:24;98465.78;;;22.71;61.31
23118;BME280;11728;50.624;6.014;2023-06-22T01:39:45;98457.69;;;22.71;61.10
23118;BME280;11728;50.624;6.014;2023-06-22T01:45:07;98457.69;;;22.71;61.07
23118;BME280;11728;50.624;6.014;2023-06-22T01:50:28;98448.66;;;22.72;61.20
23118;BME280;11728;50.624;6.014;2023-06-22T01:55:49;98441.34;;;22.74;60.62
23118;BME280;11728;50.624;6.014;2023-06-22T02:01:11;98453.63;;;22.78;61.01
23118;BME280;11728;50.624;6.014;2023-06-22T02:06:37;98455.34;;;22.79;60.55
23118;BME280;11728;50.624;6.014;2023-06-22T02:12:00;98449.97;;;22.79;60.72
23118;BME280;11728;50.624;6.014;2023-06-22T02:17:23;98447.13;;;22.68;61.13
23118;BME280;11728;50.624;6.014;2023-06-22T02:22:44;98433.31;;;22.60;61.89
23118;BME280;11728;50.624;6.014;2023-06-22T02:28:05;98432.00;;;22.53;62.17
23118;BME280;11728;50.624;6.014;2023-06-22T02:33:26;98412.63;;;22.48;62.20
23118;BME280;11728;50.624;6.014;2023-06-22T02:38:47;98413.59;;;22.47;62.17
23118;BME280;11728;50.624;6.014;2023-06-22T02:44:08;98403.78;;;22.46;62.36
23118;BME280;11728;50.624;6.014;2023-06-22T02:49:29;98387.84;;;22.43;62.97
23118;BME280;11728;50.624;6.014;2023-06-22T02:54:50;98375.38;;;22.42;63.15
23118;BME280;11728;50.624;6.014;2023-06-22T03:00:11;98376.22;;;22.43;62.80
23118;BME280;11728;50.624;6.014;2023-06-22T03:05:38;98370.19;;;22.39;62.57
23118;BME280;11728;50.624;6.014;2023-06-22T03:11:00;98372.03;;;22.39;62.95
23118;BME280;11728;50.624;6.014;2023-06-22T03:16:21;98372.13;;;22.37;63.09
23118;BME280;11728;50.624;6.014;2023-06-22T03:21:42;98368.69;;;22.35;63.55
23118;BME280;11728;50.624;6.014;2023-06-22T03:27:03;98361.75;;;22.31;64.06
23118;BME280;11728;50.624;6.014;2023-06-22T03:32:26;98353.81;;;22.30;64.13
23118;BME280;11728;50.624;6.014;2023-06-22T03:37:48;98365.97;;;22.35;63.79
23118;BME280;11728;50.624;6.014;2023-06-22T03:43:09;98385.47;;;22.39;63.59
23118;BME280;11728;50.624;6.014;2023-06-22T03:48:29;98381.16;;;22.36;63.78
23118;BME280;11728;50.624;6.014;2023-06-22T03:53:50;98395.78;;;22.32;63.74
23118;BME280;11728;50.624;6.014;2023-06-22T03:59:11;98385.22;;;22.29;64.27
23118;BME280;11728;50.624;6.014;2023-06-22T04:04:31;98382.25;;;22.34;64.16
23118;BME280;11728;50.624;6.014;2023-06-22T04:09:54;98395.59;;;22.35;64.02
23118;BME280;11728;50.624;6.014;2023-06-22T04:15:15;98397.09;;;22.39;63.83
23118;BME280;11728;50.624;6.014;2023-06-22T04:20:35;98395.97;;;22.29;64.31
23118;BME280;11728;50.624;6.014;2023-06-22T04:25:56;98395.63;;;22.21;64.69
23118;BME280;11728;50.624;6.014;2023-06-22T04:31:18;98402.16;;;22.17;64.94
23118;BME280;11728;50.624;6.014;2023-06-22T04:36:41;98393.38;;;22.28;64.89
23118;BME280;11728;50.624;6.014;2023-06-22T04:42:01;98391.63;;;22.41;64.11
23118;BME280;11728;50.624;6.014;2023-06-22T04:47:22;98391.44;;;22.56;63.89
23118;BME280;11728;50.624;6.014;2023-06-22T04:52:43;98392.88;;;22.74;63.71
23118;BME280;11728;50.624;6.014;2023-06-22T04:58:03;98369.47;;;22.87;63.76
23118;BME280;11728;50.624;6.014;2023-06-22T05:03:27;98376.81;;;22.97;63.81
23118;BME280;11728;50.624;6.014;2023-06-22T05:08:48;98374.59;;;23.04;63.15
23118;BME280;11728;50.624;6.014;2023-06-22T05:14:09;98372.63;;;23.06;63.16
23118;BME280;11728;50.624;6.014;2023-06-22T05:19:29;98369.59;;;23.23;62.59
23118;BME280;11728;50.624;6.014;2023-06-22T05:24:54;98379.16;;;23.26;61.75
23118;BME280;11728;50.624;6.014;2023-06-22T05:30:14;98379.59;;;23.33;60.98
23118;BME280;11728;50.624;6.014;2023-06-22T05:35:36;98391.97;;;23.48;60.89
23118;BME280;11728;50.624;6.014;2023-06-22T05:40:57;98401.22;;;23.56;60.06
23118;BME280;11728;50.624;6.014;2023-06-22T05:46:18;98404.91;;;23.55;60.91
23118;BME280;11728;50.624;6.014;2023-06-22T05:51:40;98412.00;;;23.56;60.79
23118;BME280;11728;50.624;6.014;2023-06-22T05:57:01;98409.75;;;23.50;60.73
23118;BME280;11728;50.624;6.014;2023-06-22T06:02:21;98417.19;;;23.59;60.28
23118;BME280;11728;50.624;6.014;2023-06-22T06:07:43;98400.34;;;23.68;60.44
23118;BME280;11728;50.624;6.014;2023-06-22T06:13:03;98410.25;;;23.80;60.13
23118;BME280;11728;50.624;6.014;2023-06-22T06:18:27;98405.25;;;23.99;59.90
23118;BME280;11728;50.624;6.014;2023-06-22T06:23:48;98389.38;;;24.18;59.42
23118;BME280;11728;50.624;6.014;2023-06-22T06:29:08;98383.63;;;24.22;58.66
23118;BME280;11728;50.624;6.014;2023-06-22T06:34:29;98381.09;;;24.32;58.63
23118;BME280;11728;50.624;6.014;2023-06-22T06:39:50;98370.66;;;24.51;58.26
23118;BME280;11728;50.624;6.014;2023-06-22T06:45:19;98362.59;;;24.83;57.76
23118;BME280;11728;50.624;6.014;2023-06-22T06:50:39;98334.66;;;25.28;57.01
23118;BME280;11728;50.624;6.014;2023-06-22T06:56:00;98333.81;;;26.03;54.75
23118;BME280;11728;50.624;6.014;2023-06-22T07:01:21;98328.28;;;26.76;53.00
23118;BME280;11728;50.624;6.014;2023-06-22T07:06:42;98311.63;;;27.01;51.40
23118;BME280;11728;50.624;6.014;2023-06-22T07:12:03;98299.94;;;27.10;51.90
23118;BME280;11728;50.624;6.014;2023-06-22T07:17:24;98280.34;;;27.36;51.03
23118;BME280;11728;50.624;6.014;2023-06-22T07:22:45;98264.13;;;27.55;50.29
23118;BME280;11728;50.624;6.014;2023-06-22T07:28:07;98274.66;;;27.98;49.59
23118;BME280;11728;50.624;6.014;2023-06-22T07:33:28;98270.94;;;28.27;48.86
23118;BME280;11728;50.624;6.014;2023-06-22T07:38:48;98270.44;;;28.97;48.25
23118;BME280;11728;50.624;6.014;2023-06-22T07:44:09;98258.72;;;29.51;46.73
23118;BME280;11728;50.624;6.014;2023-06-22T07:49:30;98200.91;;;29.39;46.55
23118;BME280;11728;50.624;6.014;2023-06-22T07:54:51;98214.09;;;29.61;46.90
23118;BME280;11728;50.624;6.014;2023-06-22T08:00:12;98241.28;;;29.44;47.89
23118;BME280;11728;50.624;6.014;2023-06-22T08:05:36;98232.44;;;29.32;47.79
23118;BME280;11728;50.624;6.014;2023-06-22T08:10:57;98225.03;;;29.25;47.53
23118;BME280;11728;50.624;6.014;2023-06-22T08:16:18;98218.63;;;29.43;47.52
23118;BME280;11728;50.624;6.014;2023-06-22T08:21:38;98206.28;;;30.78;45.95
23118;BME280;11728;50.624;6.014;2023-06-22T08:26:59;98191.22;;;31.90;43.68
23118;BME280;11728;50.624;6.014;2023-06-22T08:32:20;98188.94;;;32.97;41.93
23118;BME280;11728;50.624;6.014;2023-06-22T08:37:41;98180.59;;;33.75;40.61
23118;BME280;11728;50.624;6.014;2023-06-22T08:43:02;98181.34;;;34.36;39.08
23118;BME280;11728;50.624;6.014;2023-06-22T08:48:23;98184.69;;;33.79;38.49
23118;BME280;11728;50.624;6.014;2023-06-22T08:53:43;98174.81;;;32.78;39.95
23118;BME280;11728;50.624;6.014;2023-06-22T08:59:05;98160.81;;;32.65;40.44
23118;BME280;11728;50.624;6.014;2023-06-22T09:04:28;98157.06;;;32.50;40.53
23118;BME280;11728;50.624;6.014;2023-06-22T09:09:49;98156.28;;;31.44;41.81
23118;BME280;11728;50.624;6.014;2023-06-22T09:15:10;98165.19;;;30.29;43.37
23118;BME280;11728;50.624;6.014;2023-06-22T09:20:31;98166.94;;;29.34;45.61
23118;BME280;11728;50.624;6.014;2023-06-22T09:25:51;98207.53;;;28.64;47.17
23118;BME280;11728;50.624;6.014;2023-06-22T09:31:12;98269.38;;;28.24;48.37
23118;BME280;11728;50.624;6.014;2023-06-22T09:36:33;98298.22;;;27.88;51.27
23118;BME280;11728;50.624;6.014;2023-06-22T09:41:54;98297.75;;;27.64;52.82
23118;BME280;11728;50.624;6.014;2023-06-22T09:47:14;98281.25;;;27.46;55.44
23118;BME280;11728;50.624;6.014;2023-06-22T09:52:35;98298.88;;;27.22;56.90
23118;BME280;11728;50.624;6.014;2023-06-22T09:57:56;98309.75;;;27.02;59.38
23118;BME280;11728;50.624;6.014;2023-06-22T10:03:17;98300.78;;;26.81;60.50
23118;BME280;11728;50.624;6.014;2023-06-22T10:08:37;98296.53;;;26.67;61.44
23118;BME280;11728;50.624;6.014;2023-06-22T10:13:59;98268.84;;;26.64;63.63
23118;BME280;11728;50.624;6.014;2023-06-22T10:19:20;98253.91;;;26.69;65.08
23118;BME280;11728;50.624;6.014;2023-06-22T10:24:41;98259.41;;;26.88;65.60
23118;BME280;11728;50.624;6.014;2023-06-22T10:30:07;98232.78;;;27.23;66.07
23118;BME280;11728;50.624;6.014;2023-06-22T10:35:28;98215.72;;;27.70;64.91
23118;BME280;11728;50.624;6.014;2023-06-22T10:40:49;98196.19;;;28.23;64.74
23118;BME280;11728;50.624;6.014;2023-06-22T10:46:10;98186.06;;;29.68;62.66
23118;BME280;11728;50.624;6.014;2023-06-22T10:51:30;98155.59;;;29.82;60.39
23118;BME280;11728;50.624;6.014;2023-06-22T10:56:52;98142.66;;;30.19;60.20
23118;BME280;11728;50.624;6.014;2023-06-22T11:02:13;98123.41;;;31.05;57.48
23118;BME280;11728;50.624;6.014;2023-06-22T11:07:34;98120.47;;;32.59;52.87
23118;BME280;11728;50.624;6.014;2023-06-22T11:12:54;98103.06;;;33.67;48.94
23118;BME280;11728;50.624;6.014;2023-06-22T11:18:16;98105.44;;;33.39;48.09
23118;BME280;11728;50.624;6.014;2023-06-22T11:23:37;98105.31;;;33.63;47.50
23118;BME280;11728;50.624;6.014;2023-06-22T11:28:58;98108.81;;;32.65;48.25
23118;BME280;11728;50.624;6.014;2023-06-22T11:34:19;98090.59;;;31.54;50.08
23118;BME280;11728;50.624;6.014;2023-06-22T11:39:39;98082.13;;;31.16;50.32
23118;BME280;11728;50.624;6.014;2023-06-22T11:45:00;98071.25;;;30.82;51.69
23118;BME280;11728;50.624;6.014;2023-06-22T11:50:21;98064.06;;;31.30;51.08
23118;BME280;11728;50.624;6.014;2023-06-22T11:55:41;98056.53;;;31.17;51.91
23118;BME280;11728;50.624;6.014;2023-06-22T12:01:02;98047.00;;;31.13;51.58
23118;BME280;11728;50.624;6.014;2023-06-22T12:06:23;98044.59;;;31.18;50.42
23118;BME280;11728;50.624;6.014;2023-06-22T12:11:43;98022.31;;;31.78;49.01
23118;BME280;11728;50.624;6.014;2023-06-22T12:17:04;98003.09;;;33.32;47.04
23118;BME280;11728;50.624;6.014;2023-06-22T12:22:25;97980.84;;;34.52;44.55
23118;BME280;11728;50.624;6.014;2023-06-22T12:27:45;97986.19;;;34.89;42.53
23118;BME280;11728;50.624;6.014;2023-06-22T12:33:06;97981.22;;;34.63;43.16
23118;BME280;11728;50.624;6.014;2023-06-22T12:38:27;97984.66;;;33.85;44.29
23118;BME280;11728;50.624;6.014;2023-06-22T12:43:48;97977.28;;;33.27;45.34
23118;BME280;11728;50.624;6.014;2023-06-22T12:49:08;97974.09;;;32.55;46.86
23118;BME280;11728;50.624;6.014;2023-06-22T12:54:29;97964.78;;;31.55;49.20
23118;BME280;11728;50.624;6.014;2023-06-22T12:59:50;97964.63;;;30.60;51.11
23118;BME280;11728;50.624;6.014;2023-06-22T13:05:11;97950.00;;;29.94;51.53
23118;BME280;11728;50.624;6.014;2023-06-22T13:10:32;97940.53;;;29.56;52.74
23118;BME280;11728;50.624;6.014;2023-06-22T13:15:53;97916.47;;;29.26;53.21
23118;BME280;11728;50.624;6.014;2023-06-22T13:21:14;97889.13;;;29.10;53.89
23118;BME280;11728;50.624;6.014;2023-06-22T13:26:35;97884.13;;;28.97;54.78
23118;BME280;11728;50.624;6.014;2023-06-22T13:31:56;97896.31;;;28.76;55.50
23118;BME280;11728;50.624;6.014;2023-06-22T13:37:17;97873.78;;;28.49;56.15
23118;BME280;11728;50.624;6.014;2023-06-22T13:42:39;97851.00;;;28.15;57.33
23118;BME280;11728;50.624;6.014;2023-06-22T13:47:59;97829.72;;;27.84;58.61
23118;BME280;11728;50.624;6.014;2023-06-22T13:53:20;97779.38;;;27.45;61.02
23118;BME280;11728;50.624;6.014;2023-06-22T13:58:41;97769.28;;;27.01;64.56
23118;BME280;11728;50.624;6.014;2023-06-22T14:04:03;97758.75;;;26.70;67.07
23118;BME280;11728;50.624;6.014;2023-06-22T14:09:24;97763.09;;;26.44;70.00
23118;BME280;11728;50.624;6.014;2023-06-22T14:14:44;97752.53;;;26.32;71.32
23118;BME280;11728;50.624;6.014;2023-06-22T14:20:06;97712.38;;;26.08;73.36
23118;BME280;11728;50.624;6.014;2023-06-22T14:25:28;97687.16;;;25.89;74.45
23118;BME280;11728;50.624;6.014;2023-06-22T14:30:49;97737.13;;;25.66;75.31
23118;BME280;11728;50.624;6.014;2023-06-22T14:36:10;97637.97;;;25.27;77.38
23118;BME280;11728;50.624;6.014;2023-06-22T14:41:30;97804.19;;;25.23;76.76
23118;BME280;11728;50.624;6.014;2023-06-22T14:46:51;97791.09;;;25.28;75.18
23118;BME280;11728;50.624;6.014;2023-06-22T14:52:12;97813.34;;;25.41;73.89
23118;BME280;11728;50.624;6.014;2023-06-22T14:57:34;97846.00;;;25.19;75.21
23118;BME280;11728;50.624;6.014;2023-06-22T15:02:55;97838.06;;;24.77;79.30
23118;BME280;11728;50.624;6.014;2023-06-22T15:08:16;97794.16;;;24.64;81.58
23118;BME280;11728;50.624;6.014;2023-06-22T15:13:39;97781.97;;;24.29;81.45
23118;BME280;11728;50.624;6.014;2023-06-22T15:19:00;97792.06;;;24.16;81.46
23118;BME280;11728;50.624;6.014;2023-06-22T15:24:20;97817.53;;;24.34;82.07
23118;BME280;11728;50.624;6.014;2023-06-22T15:29:41;97810.56;;;24.52;80.89
23118;BME280;11728;50.624;6.014;2023-06-22T15:35:02;97785.66;;;24.69;80.68
23118;BME280;11728;50.624;6.014;2023-06-22T15:40:23;97775.22;;;24.84;78.18
23118;BME280;11728;50.624;6.014;2023-06-22T15:45:43;97777.31;;;25.01;77.78
23118;BME280;11728;50.624;6.014;2023-06-22T15:51:04;97793.13;;;25.06;75.11
23118;BME280;11728;50.624;6.014;2023-06-22T15:56:25;97796.44;;;25.09;74.75
23118;BME280;11728;50.624;6.014;2023-06-22T16:01:45;97786.59;;;25.08;73.69
23118;BME280;11728;50.624;6.014;2023-06-22T16:07:06;97781.25;;;24.97;74.59
23118;BME280;11728;50.624;6.014;2023-06-22T16:12:27;97790.16;;;24.88;76.44
23118;BME280;11728;50.624;6.014;2023-06-22T16:17:49;97787.81;;;24.75;77.87
23118;BME280;11728;50.624;6.014;2023-06-22T16:23:10;97786.16;;;24.53;79.24
23118;BME280;11728;50.624;6.014;2023-06-22T16:28:30;97787.38;;;24.29;80.55
23118;BME280;11728;50.624;6.014;2023-06-22T16:33:51;97796.56;;;24.06;80.70
23118;BME280;11728;50.624;6.014;2023-06-22T16:39:12;97816.59;;;23.93;81.55
23118;BME280;11728;50.624;6.014;2023-06-22T16:44:33;97818.59;;;23.80;81.72
23118;BME280;11728;50.624;6.014;2023-06-22T16:49:55;97830.72;;;23.63;81.61
23118;BME280;11728;50.624;6.014;2023-06-22T16:55:16;97841.06;;;23.47;81.78
23118;BME280;11728;50.624;6.014;2023-06-22T17:00:36;97850.84;;;23.26;81.77
23118;BME280;11728;50.624;6.014;2023-06-22T17:05:58;97850.41;;;23.11;82.51
23118;BME280;11728;50.624;6.014;2023-06-22T17:11:19;97849.72;;;22.96;82.54
23118;BME280;11728;50.624;6.014;2023-06-22T17:16:41;97843.94;;;22.79;83.19
23118;BME280;11728;50.624;6.014;2023-06-22T17:22:04;97859.97;;;22.69;83.20
23118;BME280;11728;50.624;6.014;2023-06-22T17:27:28;97869.09;;;22.56;83.38
23118;BME280;11728;50.624;6.014;2023-06-22T17:32:49;97888.03;;;22.44;83.44
23118;BME280;11728;50.624;6.014;2023-06-22T17:38:19;97898.63;;;22.11;84.55
23118;BME280;11728;50.624;6.014;2023-06-22T17:43:44;97931.56;;;21.78;85.56
23118;BME280;11728;50.624;6.014;2023-06-22T17:49:07;97940.44;;;21.56;86.21
23118;BME280;11728;50.624;6.014;2023-06-22T17:54:30;97957.63;;;21.41;86.84
23118;BME280;11728;50.624;6.014;2023-06-22T17:59:51;97989.63;;;21.31;87.13
23118;BME280;11728;50.624;6.014;2023-06-22T18:05:12;97992.22;;;21.20;87.58
23118;BME280;11728;50.624;6.014;2023-06-22T18:10:35;98016.91;;;21.13;87.67
23118;BME280;11728;50.624;6.014;2023-06-22T18:15:56;98047.44;;;21.12;87.85
23118;BME280;11728;50.624;6.014;2023-06-22T18:21:17;98060.09;;;21.10;87.83
23118;BME280;11728;50.624;6.014;2023-06-22T18:26:38;98055.47;;;20.99;88.15
23118;BME280;11728;50.624;6.014;2023-06-22T18:32:00;98079.19;;;20.93;87.69
23118;BME280;11728;50.624;6.014;2023-06-22T18:37:21;98096.34;;;20.90;87.64
23118;BME280;11728;50.624;6.014;2023-06-22T18:42:46;98107.28;;;20.88;87.58
23118;BME280;11728;50.624;6.014;2023-06-22T18:48:07;98119.75;;;20.88;87.28
23118;BME280;11728;50.624;6.014;2023-06-22T18:53:28;98134.38;;;20.85;87.26
23118;BME280;11728;50.624;6.014;2023-06-22T18:58:56;98156.25;;;20.79;87.04
23118;BME280;11728;50.624;6.014;2023-06-22T19:04:19;98173.75;;;20.70;86.94
23118;BME280;11728;50.624;6.014;2023-06-22T19:09:40;98196.47;;;20.65;87.01
23118;BME280;11728;50.624;6.014;2023-06-22T19:15:10;98199.50;;;20.60;87.21
23118;BME280;11728;50.624;6.014;2023-06-22T19:20:32;98219.03;;;20.48;87.02
23118;BME280;11728;50.624;6.014;2023-06-22T19:26:00;98235.34;;;20.45;87.14
23118;BME280;11728;50.624;6.014;2023-06-22T19:31:23;98222.09;;;20.42;86.99
23118;BME280;11728;50.624;6.014;2023-06-22T19:36:45;98235.41;;;20.44;86.91
23118;BME280;11728;50.624;6.014;2023-06-22T19:42:06;98237.94;;;20.47;86.80
23118;BME280;11728;50.624;6.014;2023-06-22T19:47:27;98257.94;;;20.55;87.03
23118;BME280;11728;50.624;6.014;2023-06-22T19:52:48;98263.69;;;20.63;86.90
23118;BME280;11728;50.624;6.014;2023-06-22T19:58:10;98275.75;;;20.70;87.18
23118;BME280;11728;50.624;6.014;2023-06-22T20:03:37;98276.28;;;20.77;87.86
23118;BME280;11728;50.624;6.014;2023-06-22T20:08:58;98288.38;;;20.84;87.43
23118;BME280;11728;50.624;6.014;2023-06-22T20:14:23;98289.59;;;20.92;87.61
23118;BME280;11728;50.624;6.014;2023-06-22T20:19:44;98302.84;;;20.95;87.43
23118;BME280;11728;50.624;6.014;2023-06-22T20:25:06;98280.78;;;20.90;88.40
23118;BME280;11728;50.624;6.014;2023-06-22T20:30:26;98294.78;;;20.95;88.38
23118;BME280;11728;50.624;6.014;2023-06-22T20:35:47;98316.63;;;21.03;88.66
23118;BME280;11728;50.624;6.014;2023-06-22T20:41:09;98315.50;;;20.93;88.51
23118;BME280;11728;50.624;6.014;2023-06-22T20:46:30;98307.94;;;20.86;88.53
23118;BME280;11728;50.624;6.014;2023-06-22T20:51:51;98326.72;;;20.86;88.99
23118;BME280;11728;50.624;6.014;2023-06-22T20:57:12;98322.69;;;20.79;89.30
23118;BME280;11728;50.624;6.014;2023-06-22T21:02:32;98320.44;;;20.71;90.09
23118;BME280;11728;50.624;6.014;2023-06-22T21:07:54;98325.25;;;20.66;90.71
23118;BME280;11728;50.624;6.014;2023-06-22T21:13:15;98329.00;;;20.64;91.26
23118;BME280;11728;50.624;6.014;2023-06-22T21:18:37;98348.91;;;20.60;91.89
23118;BME280;11728;50.624;6.014;2023-06-22T21:23:58;98380.44;;;20.56;92.06
23118;BME280;11728;50.624;6.014;2023-06-22T21:29:18;98384.97;;;20.56;91.73
23118;BME280;11728;50.624;6.014;2023-06-22T21:34:39;98387.53;;;20.57;91.27
23118;BME280;11728;50.624;6.014;2023-06-22T21:40:00;98398.72;;;20.50;90.73
23118;BME280;11728;50.624;6.014;2023-06-22T21:45:20;98415.81;;;20.49;90.30
23118;BME280;11728;50.624;6.014;2023-06-22T21:50:41;98425.75;;;20.47;90.08
23118;BME280;11728;50.624;6.014;2023-06-22T21:56:02;98427.19;;;20.38;89.99
23118;BME280;11728;50.624;6.014;2023-06-22T22:01:23;98415.00;;;20.33;89.68
23118;BME280;11728;50.624;6.014;2023-06-22T22:06:43;98434.22;;;20.25;90.08
23118;BME280;11728;50.624;6.014;2023-06-22T22:12:09;98437.00;;;20.24;90.01
23118;BME280;11728;50.624;6.014;2023-06-22T22:17:30;98427.09;;;20.24;90.01
23118;BME280;11728;50.624;6.014;2023-06-22T22:22:51;98436.88;;;20.25;90.59
23118;BME280;11728;50.624;6.014;2023-06-22T22:28:12;98428.94;;;20.24;90.65
23118;BME280;11728;50.624;6.014;2023-06-22T22:33:32;98440.63;;;20.23;91.20
23118;BME280;11728;50.624;6.014;2023-06-22T22:38:56;98438.03;;;20.21;91.45
23118;BME280;11728;50.624;6.014;2023-06-22T22:44:16;98438.03;;;20.21;91.44
23118;BME280;11728;50.624;6.014;2023-06-22T22:49:37;98437.84;;;20.24;91.84
23118;BME280;11728;50.624;6.014;2023-06-22T22:54:58;98446.50;;;20.29;91.86
23118;BME280;11728;50.624;6.014;2023-06-22T23:00:19;98454.44;;;20.31;92.29
23118;BME280;11728;50.624;6.014;2023-06-22T23:05:39;98458.88;;;20.32;92.29
23118;BME280;11728;50.624;6.014;2023-06-22T23:11:00;98459.66;;;20.34;92.55
23118;BME280;11728;50.624;6.014;2023-06-22T23:16:21;98476.75;;;20.31;92.51
23118;BME280;11728;50.624;6.014;2023-06-22T23:21:41;98492.28;;;20.26;92.23
23118;BME280;11728;50.624;6.014;2023-06-22T23:27:02;98502.78;;;20.15;92.16
23118;BME280;11728;50.624;6.014;2023-06-22T23:32:24;98501.03;;;20.14;92.20
23118;BME280;11728;50.624;6.014;2023-06-22T23:37:45;98507.88;;;20.20;91.48
23118;BME280;11728;50.624;6.014;2023-06-22T23:43:08;98528.03;;;20.27;90.94
23118;BME280;11728;50.624;6.014;2023-06-22T23:48:29;98546.03;;;20.25;90.81
23118;BME280;11728;50.624;6.014;2023-06-22T23:53:50;98557.09;;;20.34;90.52
23118;BME280;11728;50.624;6.014;2023-06-22T23:59:10;98553.09;;;20.41;90.27
